AirNav   Air Wisconsin pilot careers
 
 1438 users online  

63C Adams County Airport-Legion Field
Friendship (Adams), Wisconsin, USA

GOING TO FRIENDSHIP (ADAMS)?


FAA INFORMATION EFFECTIVE 26 APRIL 2018

Location

FAA Identifier: 63C
Lat/Long: 43-57-38.1171N / 089-47-19.1200W
43-57.635285N / 089-47.318667W
43.9605881 / -89.7886444
(estimated)
Elevation: 979.2 ft. / 298.5 m (surveyed)
Variation: 01W (1995)
From city: 1 mile E of FRIENDSHIP (ADAMS), WI
Time zone: UTC -5 (UTC -6 during Standard Time)
Zip code: 53934

Airport Operations

Airport use: Open to the public
Control tower: no
ARTCC: CHICAGO CENTER
FSS: GREEN BAY FLIGHT SERVICE STATION
NOTAMs facility: GRB (NOTAM-D service available)
Attendance: UNATNDD
Wind indicator: lighted
Segmented circle: yes
Lights: ACTVT REILS RY 15/33; MIRL RY 15/33 - CTAF.
Beacon: white-green (lighted land airport)
Operates sunset to sunrise.

Airport Communications

CTAF: 122.9
VOLK APPROACH: 135.25
VOLK DEPARTURE: 135.25
WX AWOS-3 at 82C (17 nm SW): 123.925 (608-562-6153)
  • APCH/DEP SERVICE PRVDD BY CHICAGO ARTCC ON FREQS 133.3/380.35 (LONE ROCK RCAG) WHEN APCH CTL CLSD.

Nearby radio navigation aids

VOR radial/distance  VOR name  Freq  Var
DLLr354/24.6DELLS VORTAC117.0003E

 
NDB name  Hdg/Dist  Freq  Var  ID
WISCONSIN RAPIDS176/24.321501WISW .. ... .--
MCCOY088/36.941200ECMY -.-. -- -.--
WAUPACA237/40.038201WPCZ .--. -.-. --..

Airport Services

Fuel available: 100LL
FUEL AVBL 24 HRS WITH CREDIT CARD.
Parking: tiedowns
Airframe service: NONE
Powerplant service: NONE
Bottled oxygen: NONE
Bulk oxygen: NONE

Runway Information

Runway 15/33

Dimensions: 3398 x 60 ft. / 1036 x 18 m
Surface: asphalt, in good condition
Weight bearing capacity: 
Single wheel: 12.5
Runway edge lights: medium intensity
RUNWAY 15  RUNWAY 33
Latitude: 43-57.897525N43-57.395970N
Longitude: 089-47.552560W089-47.209955W
Elevation: 968.4 ft.979.0 ft.
Gradient: 0.3% UP0.3% DOWN
Traffic pattern: leftleft
Runway heading: 154 magnetic, 153 true334 magnetic, 333 true
Markings: nonprecision, in good conditionnonprecision, in good condition
Visual slope indicator: 2-light PAPI on left (3.00 degrees glide path)
OPERATE CONTINUOUSLY.
2-light PAPI on left (3.00 degrees glide path)
OPERATE CONTINUOUSLY.
Runway end identifier lights: yesyes
Touchdown point: yes, no lightsyes, no lights
Obstructions: 65 ft. trees, 1400 ft. from runway, 200 ft. right of centerline, 18:1 slope to clear50 ft. trees, 800 ft. from runway, 250 ft. right of centerline, 12:1 slope to clear

Runway 8/26

Dimensions: 2780 x 100 ft. / 847 x 30 m
Surface: turf, in fair condition
Runway edge markings: 08/26 MKD WITH 3 FT WHITE CONES.
Operational restrictions: RY 08/26 CLSD DEC 1 - APR 1.
RUNWAY 8  RUNWAY 26
Latitude: 43-57.583217N43-57.659335N
Longitude: 089-47.554413W089-46.929913W
Elevation: 973.5 ft.978.1 ft.
Traffic pattern: leftleft
Runway heading: 081 magnetic, 080 true261 magnetic, 260 true
Touchdown point: yes, no lightsyes, no lights
Obstructions: 60 ft. trees, 1400 ft. from runway, 20 ft. right of centerline, 23:1 slope to clear60 ft. trees, 1250 ft. from runway, 200 ft. left of centerline, 20:1 slope to clear

Airport Ownership and Management from official FAA records

Ownership: Publicly-owned
Owner: ADAMS COUNTY
PO BOX 278
FRIENDSHIP, WI 53934
Phone 608-339-4200
Manager: MIKE SCOTT
PO BOX 819
ADAMS, WI 53910
Phone 608-339-3919
ADDITIONAL PHONE NUMBER 608-547-1303.

Airport Operational Statistics

Aircraft based on the field: 19
Single engine airplanes: 17
Helicopters: 1
Ultralights: 1
    
Aircraft operations: avg 135/week *
57% local general aviation
42% transient general aviation
<1% air taxi
<1% military
* for 12-month period ending 16 August 2016

Additional Remarks

ULTRALIGHT ACTVTY ON & IN VCNTY OF ARPT.
ACFT DEP RY 15 REQUESTED TO TURN TO A HEADING OF 180 DEGREES AFT TAKEOFF.

Instrument Procedures

NOTE: All procedures below are presented as PDF files. If you need a reader for these files, you should download the free Adobe Reader.

NOT FOR NAVIGATION. Please procure official charts for flight.
FAA instrument procedures published for use from 26 April 2018 at 901Z to 24 May 2018 at 0900Z.

 
IAPs - Instrument Approach Procedures
RNAV (GPS) RWY 33   download (191KB)
NOTE: Special Take-Off Minimums/Departure Procedures apply   download (201KB)

Other nearby airports with instrument procedures:

KDAF - Necedah Airport (14 nm W)
82C - Mauston-New Lisbon Union Airport (17 nm SW)
KVOK - Volk Field Airport (20 nm W)
Y50 - Wautoma Municipal Airport (21 nm E)
KISW - Alexander Field South Wood County Airport (24 nm N)
 
Loc | Ops | Rwys | IFR | FBO | Links
Com | Nav | Svcs | Stats | Notes

AirNav Hotels Sweepstakes
 
Area around 63C (Adams County Airport-Legion Field)
 
Road maps at: MapQuest Bing Google
 
Aerial photo
WARNING: Photo may not be current or correct
Aerial photo of 63C (Adams County Airport-Legion Field)
Photo by Mathieu Labs
Photo taken 07-May-2006

Do you have a better or more recent aerial photo of Adams County Airport-Legion Field that you would like to share? If so, please send us your photo.

 
Sectional chart

 
Airport distance calculator
Flying to Adams County Airport-Legion Field? Find the distance to fly.

From to 63C

Sunrise and sunset
Times for 26-Apr-2018
 Local
(UTC-5)
 Zulu
(UTC)
Morning civil twilight05:2810:28
Sunrise05:5910:59
Sunset19:5500:55
Evening civil twilight20:2601:26

Current date and time
Zulu (UTC)  26-Apr-2018 14:08:06
Local (UTC-5)  26-Apr-2018 09:08:06
 
METAR
K82C 
17nm SW 
261355Z AUTO 21004KT 10SM CLR 10/00 A2991 RMK AO2 T00961001
KVOK 
21nm W 
261356Z 00000KT 10SM BKN250 11/M01 A2991 RMK AO2A SLP136
KY50 
21nm E 
261356Z AUTO 22006KT 10SM CLR 08/01 A2992 RMK AO2 SLP163 T00780011 $
KISW 
24nm N 
261354Z AUTO 22006KT 10SM CLR 08/M01 A2991 RMK AO2 SLP135 T00831006 TSNO
KDLL 
26nm S 
261355Z AUTO 24005KT 10SM CLR 08/01 A2992 RMK AO2 T00840008
KC35 
27nm S 
261355Z AUTO 18003KT 10SM CLR 08/02 A2993 RMK AO2 T00780016
TAF
KVOK 
21nm W 
260900Z 2609/2715 22009KT 9999 SCT250 QNH2990INS BECMG 2611/2612 22009KT 9999 SCT250 QNH2982INS BECMG 2617/2618 26012G18KT 9999 BKN060 620604 QNH2977INS BECMG 2622/2623 29009KT 9999 BKN050 620505 QNH2977INS BECMG 2712/2713 30012G18KT 9999 BKN040 620409 QNH2981INS TX19/2620Z TNM02/2609Z
NOTAMs
Click for the latest NOTAMs
NOTAMs are issued by the DoD/FAA and will open in a separate window not controlled by AirNav.

 

 
 

FBO, Fuel Providers, and Aircraft Ground Support

  
 Business Name 
 
 Contact 
 
 Services / Description 
 
Fuel Prices
 
Comments
  
Adams County Airport-Legion Field 608-339-3919
[email]
Aviation fuel, Aircraft parking (ramp or tiedown), Passenger terminal and lounge, Rental cars, Courtesy transportation, ...
 
Courtesy car  
 
More info about Adams County Airport-Legion Field
Avfuel
100LL
SS $3.85 
 Updated 25-Apr-2018
 
   1 read write
SS=Self service
Update Fuel Prices
 

Would you like to see your business listed on this page?

 If your business provides an interesting product or service to pilots, flight crews, aircraft, or users of the Adams County Airport-Legion Field, you should consider listing it here.  To start the listing process, click on the button below
 
Add a business
 

Other Pages about Adams County Airport-Legion Field

Page from the Wisconsin airport directory (PDF)
 
Update a link
 
Copyright © AirNav, LLC. All rights reserved. Privacy Policy  Contact